Alcolu, SC

3:59 PM EDT on July 25, 2014 (GMT -0400)
Sumter Municipal (KSMS) Elev 184 ft | 34.00 °N, 80.36 °W | Change Station

Current weather conditions updated 4 minutes ago

Partly Cloudy
Partly Cloudy
84 °F
Feels Like 92 °F
N
7
Wind Variable Wind from NNE

Today is forecast to be Much Cooler than yesterday.

Today
High -- | Low -- °F
--% Chance of Precip.
Yesterday
High -- | Low -- °F
Precip. -- in
6:27 AM 8:26 PM
Waning Crescent, 1% visible
Pressure 29.99 in
Visibility 10.0 miles
Clouds Few 2000 ft
Few 2900 ft
Heat Index 92 °F
Dew Point 75 °F
Humidity 74%
Rainfall 0.00 in
Snow Depth Not available.
UV 8 out of 12
Pollen 3.20 out of 12
Air Quality Not available.
Flu Activity Not available.
METAR KSMS 251955Z AUTO 03006KT 10SM VCTS FEW020 FEW029 29/24 A2999 RMK AO2 LTG DSNT SE AND S

More Conditions Fewer Conditions

Pressure 29.99 in
Visibility 10.0 miles
Clouds Few 2000 ft
Few 2900 ft
Heat Index 92 °F
Dew Point 75 °F
Humidity 74%
Rainfall 0.00 in
Snow Depth Not available.
UV 8 out of 12
Pollen 3.20 out of 12
Air Quality Not available.
Flu Activity Not available.
METAR KSMS 251955Z AUTO 03006KT 10SM VCTS FEW020 FEW029 29/24 A2999 RMK AO2 LTG DSNT SE AND S

More Conditions Fewer Conditions

10-Day Weather Forecast

Almanac

Astronomy

Jul. 25, 2014 Rise Set
Actual Time 6:27 AM EDT 8:26 PM EDT
Civil Twilight 5:59 AM EDT 8:54 PM EDT
Nautical Twilight 5:26 AM EDT 9:28 PM EDT
Astronomical Twilight 4:49 AM EDT 10:04 PM EDT
Moon 5:23 AM EDT 7:25 PM EDT
Length of Visible Light 14h 54m
Length of Day
13h 59m
Tomorrow will be 1m 23s shorter.
Waning Crescent, 1% of the Moon is Illuminated
Today
Waning Crescent
Jul 26
New
Aug 3
First Quarter
Aug 10
Full
Aug 17
Last Quarter

Today's Extremes

State Highs State Lows

Community

WunderPhotos

Upload Photos

1,737,393 photos uploaded!

Nearby

Snow Depth

Station Depth Elevation
No new snow has been reported.

Earthquake Activity

City Distance Mag. Time & Date
No recent earthquake activity has been reported nearby.
Minimum magnitude displayed is 2.5.

Coastal Water Temperatures

Place Temperature
No Stations Reporting

Nearby Weather Stations

Station Location Temp. Heat Index Dew Point Humidity Wind Precip. Elev Updated Type
USC Sumter, Sumter, SC 84.7 °F 91 °F 72 °F 67% SSW  at  3.0 mph 0.00 in / hr 165 ft 3:30 PM EDT Normal
Southwest Sumter, Sumter, SC 85.3 °F 94 °F 75 °F 72% ENE  at  3.5 mph 0.00 in / hr 171 ft 3:59 PM EDT Rapid Fire
Sunway Knolls, Sumter, SC 84.0 °F 91 °F 74 °F 73% North  at  0.0 mph 0.00 in / hr 181 ft 3:59 PM EDT Rapid Fire
Dalzell,SC, Sumter, SC 84.4 °F 95 °F 77 °F 79% NE  at  0.0 mph 0.00 in / hr 185 ft 3:59 PM EDT Rapid Fire
Historic Hills, Dalzell, SC 86.0 °F 110 °F 85 °F 97% West  at  3.1 mph 0.00 in / hr 219 ft 3:59 PM EDT Rapid Fire
RAWS SANTEE NWR SC, Santee, SC 81 °F 88 °F 77 °F 87% WNW  at  3 mph 0.03 in / hr 78 ft 2:44 PM EDT MADIS

Show More Stations Show Fewer Stations